sensor_id;sensor_type;location;lat;lon;timestamp;temperature;humidity
6110;DHT22;3085;49.444;11.054;2022-08-19T00:01:45;20.90;99.90
6110;DHT22;3085;49.444;11.054;2022-08-19T00:04:14;20.70;99.90
6110;DHT22;3085;49.444;11.054;2022-08-19T00:06:45;20.70;99.90
6110;DHT22;3085;49.444;11.054;2022-08-19T00:09:15;20.80;99.90
6110;DHT22;3085;49.444;11.054;2022-08-19T00:11:43;20.70;99.90
6110;DHT22;3085;49.444;11.054;2022-08-19T00:14:13;20.70;99.90
6110;DHT22;3085;49.444;11.054;2022-08-19T00:16:42;20.70;99.90
6110;DHT22;3085;49.444;11.054;2022-08-19T00:19:09;20.80;99.90
6110;DHT22;3085;49.444;11.054;2022-08-19T00:21:36;20.70;99.90
6110;DHT22;3085;49.444;11.054;2022-08-19T00:24:05;20.70;99.90
6110;DHT22;3085;49.444;11.054;2022-08-19T00:26:34;20.70;99.90
6110;DHT22;3085;49.444;11.054;2022-08-19T00:29:04;20.70;99.90
6110;DHT22;3085;49.444;11.054;2022-08-19T00:31:31;20.60;99.90
6110;DHT22;3085;49.444;11.054;2022-08-19T00:33:58;20.60;99.90
6110;DHT22;3085;49.444;11.054;2022-08-19T00:36:25;20.70;99.90
6110;DHT22;3085;49.444;11.054;2022-08-19T00:38:51;20.80;99.90
6110;DHT22;3085;49.444;11.054;2022-08-19T00:41:20;20.70;99.90
6110;DHT22;3085;49.444;11.054;2022-08-19T00:43:58;20.80;99.90
6110;DHT22;3085;49.444;11.054;2022-08-19T00:46:26;20.80;99.90
6110;DHT22;3085;49.444;11.054;2022-08-19T00:48:54;20.90;99.90
6110;DHT22;3085;49.444;11.054;2022-08-19T00:51:21;21.00;99.90
6110;DHT22;3085;49.444;11.054;2022-08-19T00:53:48;21.00;99.90
6110;DHT22;3085;49.444;11.054;2022-08-19T00:56:15;21.10;99.90
6110;DHT22;3085;49.444;11.054;2022-08-19T00:58:42;21.10;99.90
6110;DHT22;3085;49.444;11.054;2022-08-19T01:01:10;21.30;99.90
6110;DHT22;3085;49.444;11.054;2022-08-19T01:03:38;21.10;99.90
6110;DHT22;3085;49.444;11.054;2022-08-19T01:06:05;21.10;99.90
6110;DHT22;3085;49.444;11.054;2022-08-19T01:08:33;21.10;99.90
6110;DHT22;3085;49.444;11.054;2022-08-19T01:11:00;20.90;99.90
6110;DHT22;3085;49.444;11.054;2022-08-19T01:13:30;20.80;99.90
6110;DHT22;3085;49.444;11.054;2022-08-19T01:16:01;20.80;99.90
6110;DHT22;3085;49.444;11.054;2022-08-19T01:18:29;20.70;99.90
6110;DHT22;3085;49.444;11.054;2022-08-19T01:21:02;20.60;99.90
6110;DHT22;3085;49.444;11.054;2022-08-19T01:23:33;20.60;99.90
6110;DHT22;3085;49.444;11.054;2022-08-19T01:26:11;20.60;99.90
6110;DHT22;3085;49.444;11.054;2022-08-19T01:28:39;20.60;99.90
6110;DHT22;3085;49.444;11.054;2022-08-19T01:31:06;20.70;99.90
6110;DHT22;3085;49.444;11.054;2022-08-19T01:33:33;20.50;99.90
6110;DHT22;3085;49.444;11.054;2022-08-19T01:36:06;20.40;99.90
6110;DHT22;3085;49.444;11.054;2022-08-19T01:38:38;20.40;99.90
6110;DHT22;3085;49.444;11.054;2022-08-19T01:41:05;20.40;99.90
6110;DHT22;3085;49.444;11.054;2022-08-19T01:43:32;20.40;99.90
6110;DHT22;3085;49.444;11.054;2022-08-19T01:46:00;20.40;99.90
6110;DHT22;3085;49.444;11.054;2022-08-19T01:48:33;20.40;99.90
6110;DHT22;3085;49.444;11.054;2022-08-19T01:51:00;20.40;99.90
6110;DHT22;3085;49.444;11.054;2022-08-19T01:53:28;20.40;99.90
6110;DHT22;3085;49.444;11.054;2022-08-19T01:55:56;20.40;99.90
6110;DHT22;3085;49.444;11.054;2022-08-19T01:58:27;20.30;99.90
6110;DHT22;3085;49.444;11.054;2022-08-19T02:00:56;20.30;99.90
6110;DHT22;3085;49.444;11.054;2022-08-19T02:03:23;20.40;99.90
6110;DHT22;3085;49.444;11.054;2022-08-19T02:05:55;20.40;99.90
6110;DHT22;3085;49.444;11.054;2022-08-19T02:08:22;20.40;99.90
6110;DHT22;3085;49.444;11.054;2022-08-19T02:10:49;20.30;99.90
6110;DHT22;3085;49.444;11.054;2022-08-19T02:13:17;20.30;99.90
6110;DHT22;3085;49.444;11.054;2022-08-19T02:15:44;20.40;99.90
6110;DHT22;3085;49.444;11.054;2022-08-19T02:18:11;20.40;99.90
6110;DHT22;3085;49.444;11.054;2022-08-19T02:20:41;20.40;99.90
6110;DHT22;3085;49.444;11.054;2022-08-19T02:23:09;20.50;99.90
6110;DHT22;3085;49.444;11.054;2022-08-19T02:25:37;20.40;99.90
6110;DHT22;3085;49.444;11.054;2022-08-19T02:28:04;20.40;99.90
6110;DHT22;3085;49.444;11.054;2022-08-19T02:30:33;20.40;99.90
6110;DHT22;3085;49.444;11.054;2022-08-19T02:32:59;20.40;99.90
6110;DHT22;3085;49.444;11.054;2022-08-19T02:35:27;20.40;99.90
6110;DHT22;3085;49.444;11.054;2022-08-19T02:37:54;20.40;99.90
6110;DHT22;3085;49.444;11.054;2022-08-19T02:40:38;20.50;99.90
6110;DHT22;3085;49.444;11.054;2022-08-19T02:43:07;20.50;99.90
6110;DHT22;3085;49.444;11.054;2022-08-19T02:45:38;20.50;99.90
6110;DHT22;3085;49.444;11.054;2022-08-19T02:48:05;20.50;99.90
6110;DHT22;3085;49.444;11.054;2022-08-19T02:50:32;20.60;99.90
6110;DHT22;3085;49.444;11.054;2022-08-19T02:52:59;20.50;99.90
6110;DHT22;3085;49.444;11.054;2022-08-19T02:55:25;20.70;99.90
6110;DHT22;3085;49.444;11.054;2022-08-19T02:57:52;20.50;99.90
6110;DHT22;3085;49.444;11.054;2022-08-19T03:00:19;20.50;99.90
6110;DHT22;3085;49.444;11.054;2022-08-19T03:02:47;20.50;99.90
6110;DHT22;3085;49.444;11.054;2022-08-19T03:05:14;20.60;99.90
6110;DHT22;3085;49.444;11.054;2022-08-19T03:07:41;20.60;99.90
6110;DHT22;3085;49.444;11.054;2022-08-19T03:10:08;20.60;99.90
6110;DHT22;3085;49.444;11.054;2022-08-19T03:12:36;20.60;99.90
6110;DHT22;3085;49.444;11.054;2022-08-19T03:15:04;20.50;99.90
6110;DHT22;3085;49.444;11.054;2022-08-19T03:17:32;20.50;99.90
6110;DHT22;3085;49.444;11.054;2022-08-19T03:20:01;20.60;99.90
6110;DHT22;3085;49.444;11.054;2022-08-19T03:22:27;20.60;99.90
6110;DHT22;3085;49.444;11.054;2022-08-19T03:24:55;20.60;99.90
6110;DHT22;3085;49.444;11.054;2022-08-19T03:27:22;20.60;99.90
6110;DHT22;3085;49.444;11.054;2022-08-19T03:29:49;20.60;99.90
6110;DHT22;3085;49.444;11.054;2022-08-19T03:32:16;20.50;99.90
6110;DHT22;3085;49.444;11.054;2022-08-19T03:34:42;20.40;99.90
6110;DHT22;3085;49.444;11.054;2022-08-19T03:37:11;20.30;99.90
6110;DHT22;3085;49.444;11.054;2022-08-19T03:39:40;20.30;99.90
6110;DHT22;3085;49.444;11.054;2022-08-19T03:42:08;20.30;99.90
6110;DHT22;3085;49.444;11.054;2022-08-19T03:44:35;20.20;99.90
6110;DHT22;3085;49.444;11.054;2022-08-19T03:47:03;20.20;99.90
6110;DHT22;3085;49.444;11.054;2022-08-19T03:49:32;20.20;99.90
6110;DHT22;3085;49.444;11.054;2022-08-19T03:52:00;20.20;99.90
6110;DHT22;3085;49.444;11.054;2022-08-19T03:54:29;20.20;99.90
6110;DHT22;3085;49.444;11.054;2022-08-19T03:56:56;20.10;99.90
6110;DHT22;3085;49.444;11.054;2022-08-19T03:59:25;20.10;99.90
6110;DHT22;3085;49.444;11.054;2022-08-19T04:01:52;20.10;99.90
6110;DHT22;3085;49.444;11.054;2022-08-19T04:04:19;20.10;99.90
6110;DHT22;3085;49.444;11.054;2022-08-19T04:06:47;20.10;99.90
6110;DHT22;3085;49.444;11.054;2022-08-19T04:09:14;20.10;99.90
6110;DHT22;3085;49.444;11.054;2022-08-19T04:11:44;20.10;99.90
6110;DHT22;3085;49.444;11.054;2022-08-19T04:14:15;20.10;99.90
6110;DHT22;3085;49.444;11.054;2022-08-19T04:16:42;20.10;99.90
6110;DHT22;3085;49.444;11.054;2022-08-19T04:19:10;20.10;99.90
6110;DHT22;3085;49.444;11.054;2022-08-19T04:21:37;20.10;99.90
6110;DHT22;3085;49.444;11.054;2022-08-19T04:24:05;20.20;99.90
6110;DHT22;3085;49.444;11.054;2022-08-19T04:26:34;20.10;99.90
6110;DHT22;3085;49.444;11.054;2022-08-19T04:29:06;20.20;99.90
6110;DHT22;3085;49.444;11.054;2022-08-19T04:31:33;20.20;99.90
6110;DHT22;3085;49.444;11.054;2022-08-19T04:34:03;20.40;99.90
6110;DHT22;3085;49.444;11.054;2022-08-19T04:36:33;20.20;99.90
6110;DHT22;3085;49.444;11.054;2022-08-19T04:39:03;20.30;99.90
6110;DHT22;3085;49.444;11.054;2022-08-19T04:41:30;20.30;99.90
6110;DHT22;3085;49.444;11.054;2022-08-19T04:44:18;20.30;99.90
6110;DHT22;3085;49.444;11.054;2022-08-19T04:46:46;20.40;99.90
6110;DHT22;3085;49.444;11.054;2022-08-19T04:49:14;20.40;99.90
6110;DHT22;3085;49.444;11.054;2022-08-19T04:51:43;20.50;99.90
6110;DHT22;3085;49.444;11.054;2022-08-19T04:54:11;20.40;99.90
6110;DHT22;3085;49.444;11.054;2022-08-19T04:56:39;20.50;99.90
6110;DHT22;3085;49.444;11.054;2022-08-19T04:59:06;20.50;99.90
6110;DHT22;3085;49.444;11.054;2022-08-19T05:01:35;20.50;99.90
6110;DHT22;3085;49.444;11.054;2022-08-19T05:04:04;20.50;99.90
6110;DHT22;3085;49.444;11.054;2022-08-19T05:06:32;20.50;99.90
6110;DHT22;3085;49.444;11.054;2022-08-19T05:08:59;20.70;99.90
6110;DHT22;3085;49.444;11.054;2022-08-19T05:11:28;20.50;99.90
6110;DHT22;3085;49.444;11.054;2022-08-19T05:13:56;20.50;99.90
6110;DHT22;3085;49.444;11.054;2022-08-19T05:16:25;20.60;99.90
6110;DHT22;3085;49.444;11.054;2022-08-19T05:18:53;20.50;99.90
6110;DHT22;3085;49.444;11.054;2022-08-19T05:21:40;20.60;99.90
6110;DHT22;3085;49.444;11.054;2022-08-19T05:24:25;20.70;99.90
6110;DHT22;3085;49.444;11.054;2022-08-19T05:26:53;20.80;99.90
6110;DHT22;3085;49.444;11.054;2022-08-19T05:29:24;20.80;99.90
6110;DHT22;3085;49.444;11.054;2022-08-19T05:31:52;20.80;99.90
6110;DHT22;3085;49.444;11.054;2022-08-19T05:34:23;20.80;99.90
6110;DHT22;3085;49.444;11.054;2022-08-19T05:36:53;20.70;99.90
6110;DHT22;3085;49.444;11.054;2022-08-19T05:39:22;20.70;99.90
6110;DHT22;3085;49.444;11.054;2022-08-19T05:41:55;20.70;99.90
6110;DHT22;3085;49.444;11.054;2022-08-19T05:44:24;20.70;99.90
6110;DHT22;3085;49.444;11.054;2022-08-19T05:46:51;20.80;99.90
6110;DHT22;3085;49.444;11.054;2022-08-19T05:49:22;20.80;99.90
6110;DHT22;3085;49.444;11.054;2022-08-19T05:51:50;20.80;99.90
6110;DHT22;3085;49.444;11.054;2022-08-19T05:54:18;20.70;99.90
6110;DHT22;3085;49.444;11.054;2022-08-19T05:56:45;20.70;99.90
6110;DHT22;3085;49.444;11.054;2022-08-19T05:59:14;20.90;99.90
6110;DHT22;3085;49.444;11.054;2022-08-19T06:01:43;20.70;99.90
6110;DHT22;3085;49.444;11.054;2022-08-19T06:04:12;20.70;99.90
6110;DHT22;3085;49.444;11.054;2022-08-19T06:06:41;20.80;99.90
6110;DHT22;3085;49.444;11.054;2022-08-19T06:09:08;20.70;99.90
6110;DHT22;3085;49.444;11.054;2022-08-19T06:11:37;20.70;99.90
6110;DHT22;3085;49.444;11.054;2022-08-19T06:14:07;20.70;99.90
6110;DHT22;3085;49.444;11.054;2022-08-19T06:16:36;20.70;99.90
6110;DHT22;3085;49.444;11.054;2022-08-19T06:19:05;20.70;99.90
6110;DHT22;3085;49.444;11.054;2022-08-19T06:21:34;20.90;99.90
6110;DHT22;3085;49.444;11.054;2022-08-19T06:24:05;20.90;99.90
6110;DHT22;3085;49.444;11.054;2022-08-19T06:26:34;20.90;99.90
6110;DHT22;3085;49.444;11.054;2022-08-19T06:29:01;20.90;99.90
6110;DHT22;3085;49.444;11.054;2022-08-19T06:31:29;20.90;99.90
6110;DHT22;3085;49.444;11.054;2022-08-19T06:34:00;21.00;99.90
6110;DHT22;3085;49.444;11.054;2022-08-19T06:36:29;21.00;99.90
6110;DHT22;3085;49.444;11.054;2022-08-19T06:39:00;21.10;99.90
6110;DHT22;3085;49.444;11.054;2022-08-19T06:41:29;21.20;99.90
6110;DHT22;3085;49.444;11.054;2022-08-19T06:43:57;21.30;99.90
6110;DHT22;3085;49.444;11.054;2022-08-19T06:46:24;21.30;99.90
6110;DHT22;3085;49.444;11.054;2022-08-19T06:48:52;21.30;99.90
6110;DHT22;3085;49.444;11.054;2022-08-19T06:51:21;21.30;99.90
6110;DHT22;3085;49.444;11.054;2022-08-19T06:53:51;21.40;99.90
6110;DHT22;3085;49.444;11.054;2022-08-19T06:56:23;21.30;99.90
6110;DHT22;3085;49.444;11.054;2022-08-19T06:58:52;21.40;99.90
6110;DHT22;3085;49.444;11.054;2022-08-19T07:01:19;21.40;99.90
6110;DHT22;3085;49.444;11.054;2022-08-19T07:03:46;21.80;99.90
6110;DHT22;3085;49.444;11.054;2022-08-19T07:06:18;21.20;99.90
6110;DHT22;3085;49.444;11.054;2022-08-19T07:08:46;21.20;99.90
6110;DHT22;3085;49.444;11.054;2022-08-19T07:11:16;21.40;99.90
6110;DHT22;3085;49.444;11.054;2022-08-19T07:13:45;21.40;99.90
6110;DHT22;3085;49.444;11.054;2022-08-19T07:16:17;21.30;99.90
6110;DHT22;3085;49.444;11.054;2022-08-19T07:18:45;21.40;99.90
6110;DHT22;3085;49.444;11.054;2022-08-19T07:21:15;21.40;99.90
6110;DHT22;3085;49.444;11.054;2022-08-19T07:23:42;21.50;99.90
6110;DHT22;3085;49.444;11.054;2022-08-19T07:26:11;21.50;99.90
6110;DHT22;3085;49.444;11.054;2022-08-19T07:28:39;21.50;99.90
6110;DHT22;3085;49.444;11.054;2022-08-19T07:31:06;21.40;99.90
6110;DHT22;3085;49.444;11.054;2022-08-19T07:33:34;21.50;99.90
6110;DHT22;3085;49.444;11.054;2022-08-19T07:36:03;21.40;99.90
6110;DHT22;3085;49.444;11.054;2022-08-19T07:38:31;21.40;99.90
6110;DHT22;3085;49.444;11.054;2022-08-19T07:40:57;21.50;99.90
6110;DHT22;3085;49.444;11.054;2022-08-19T07:43:24;21.50;99.90
6110;DHT22;3085;49.444;11.054;2022-08-19T07:45:53;21.50;99.90
6110;DHT22;3085;49.444;11.054;2022-08-19T07:48:22;21.50;99.90
6110;DHT22;3085;49.444;11.054;2022-08-19T07:50:52;21.40;99.90
6110;DHT22;3085;49.444;11.054;2022-08-19T07:53:20;21.30;99.90
6110;DHT22;3085;49.444;11.054;2022-08-19T07:55:47;21.30;99.90
6110;DHT22;3085;49.444;11.054;2022-08-19T07:58:16;21.30;99.90
6110;DHT22;3085;49.444;11.054;2022-08-19T08:00:46;21.30;99.90
6110;DHT22;3085;49.444;11.054;2022-08-19T08:03:15;21.30;99.90
6110;DHT22;3085;49.444;11.054;2022-08-19T08:05:43;21.30;99.90
6110;DHT22;3085;49.444;11.054;2022-08-19T08:08:29;21.40;99.90
6110;DHT22;3085;49.444;11.054;2022-08-19T08:11:28;21.50;99.90
6110;DHT22;3085;49.444;11.054;2022-08-19T08:13:54;21.50;99.90
6110;DHT22;3085;49.444;11.054;2022-08-19T08:16:23;21.50;99.90
6110;DHT22;3085;49.444;11.054;2022-08-19T08:18:56;21.60;99.90
6110;DHT22;3085;49.444;11.054;2022-08-19T08:21:23;21.70;99.90
6110;DHT22;3085;49.444;11.054;2022-08-19T08:23:51;21.60;99.90
6110;DHT22;3085;49.444;11.054;2022-08-19T08:26:20;21.60;99.90
6110;DHT22;3085;49.444;11.054;2022-08-19T08:28:47;21.60;99.90
6110;DHT22;3085;49.444;11.054;2022-08-19T08:31:14;21.60;99.90
6110;DHT22;3085;49.444;11.054;2022-08-19T08:33:41;21.70;99.90
6110;DHT22;3085;49.444;11.054;2022-08-19T08:36:08;21.50;99.90
6110;DHT22;3085;49.444;11.054;2022-08-19T08:38:37;21.50;99.90
6110;DHT22;3085;49.444;11.054;2022-08-19T08:41:09;21.40;99.90
6110;DHT22;3085;49.444;11.054;2022-08-19T08:43:46;21.30;99.90
6110;DHT22;3085;49.444;11.054;2022-08-19T08:46:17;21.20;99.90
6110;DHT22;3085;49.444;11.054;2022-08-19T08:48:49;21.10;99.90
6110;DHT22;3085;49.444;11.054;2022-08-19T08:51:21;21.20;99.90
6110;DHT22;3085;49.444;11.054;2022-08-19T08:53:51;21.30;99.90
6110;DHT22;3085;49.444;11.054;2022-08-19T08:56:20;21.10;99.90
6110;DHT22;3085;49.444;11.054;2022-08-19T08:58:52;21.10;99.90
6110;DHT22;3085;49.444;11.054;2022-08-19T09:01:21;21.00;99.90
6110;DHT22;3085;49.444;11.054;2022-08-19T09:03:47;21.00;99.90
6110;DHT22;3085;49.444;11.054;2022-08-19T09:06:25;21.00;99.90
6110;DHT22;3085;49.444;11.054;2022-08-19T09:09:03;21.00;99.90
6110;DHT22;3085;49.444;11.054;2022-08-19T09:11:38;21.00;99.90
6110;DHT22;3085;49.444;11.054;2022-08-19T09:14:13;21.00;99.90
6110;DHT22;3085;49.444;11.054;2022-08-19T09:16:42;21.00;99.90
6110;DHT22;3085;49.444;11.054;2022-08-19T09:19:09;21.00;99.90
6110;DHT22;3085;49.444;11.054;2022-08-19T09:21:36;21.00;99.90
6110;DHT22;3085;49.444;11.054;2022-08-19T09:24:04;21.00;99.90
6110;DHT22;3085;49.444;11.054;2022-08-19T09:26:33;20.90;99.90
6110;DHT22;3085;49.444;11.054;2022-08-19T09:29:01;21.00;99.90
6110;DHT22;3085;49.444;11.054;2022-08-19T09:31:31;21.00;99.90
6110;DHT22;3085;49.444;11.054;2022-08-19T09:33:58;21.00;99.90
6110;DHT22;3085;49.444;11.054;2022-08-19T09:36:27;21.00;99.90
6110;DHT22;3085;49.444;11.054;2022-08-19T09:38:58;21.00;99.90
6110;DHT22;3085;49.444;11.054;2022-08-19T09:41:26;21.10;99.90
6110;DHT22;3085;49.444;11.054;2022-08-19T09:43:55;21.00;99.90
6110;DHT22;3085;49.444;11.054;2022-08-19T09:46:23;21.00;99.90
6110;DHT22;3085;49.444;11.054;2022-08-19T09:48:51;20.90;99.90
6110;DHT22;3085;49.444;11.054;2022-08-19T09:51:19;21.00;99.90
6110;DHT22;3085;49.444;11.054;2022-08-19T09:53:48;21.00;99.90
6110;DHT22;3085;49.444;11.054;2022-08-19T09:56:18;21.00;99.90
6110;DHT22;3085;49.444;11.054;2022-08-19T09:58:45;21.00;99.90
6110;DHT22;3085;49.444;11.054;2022-08-19T10:01:19;20.90;99.90
6110;DHT22;3085;49.444;11.054;2022-08-19T10:03:48;20.90;99.90
6110;DHT22;3085;49.444;11.054;2022-08-19T10:06:16;20.90;99.90
6110;DHT22;3085;49.444;11.054;2022-08-19T10:08:43;20.90;99.90
6110;DHT22;3085;49.444;11.054;2022-08-19T10:11:11;20.90;99.90
6110;DHT22;3085;49.444;11.054;2022-08-19T10:13:39;21.00;99.90
6110;DHT22;3085;49.444;11.054;2022-08-19T10:16:09;21.00;99.90
6110;DHT22;3085;49.444;11.054;2022-08-19T10:18:39;21.00;99.90
6110;DHT22;3085;49.444;11.054;2022-08-19T10:21:11;21.00;99.90
6110;DHT22;3085;49.444;11.054;2022-08-19T10:23:41;21.10;99.90
6110;DHT22;3085;49.444;11.054;2022-08-19T10:26:09;21.10;99.90
6110;DHT22;3085;49.444;11.054;2022-08-19T10:28:37;21.10;99.90
6110;DHT22;3085;49.444;11.054;2022-08-19T10:31:04;21.10;99.90
6110;DHT22;3085;49.444;11.054;2022-08-19T10:33:32;21.10;99.90
6110;DHT22;3085;49.444;11.054;2022-08-19T10:36:01;21.10;99.90
6110;DHT22;3085;49.444;11.054;2022-08-19T10:38:28;21.10;99.90
6110;DHT22;3085;49.444;11.054;2022-08-19T10:40:57;21.10;99.90
6110;DHT22;3085;49.444;11.054;2022-08-19T10:43:24;21.10;99.90
6110;DHT22;3085;49.444;11.054;2022-08-19T10:45:54;21.20;99.90
6110;DHT22;3085;49.444;11.054;2022-08-19T10:48:24;21.30;99.90
6110;DHT22;3085;49.444;11.054;2022-08-19T10:50:51;21.20;99.90
6110;DHT22;3085;49.444;11.054;2022-08-19T10:53:37;21.10;99.90
6110;DHT22;3085;49.444;11.054;2022-08-19T10:56:04;21.20;99.90
6110;DHT22;3085;49.444;11.054;2022-08-19T10:58:49;21.10;99.90
6110;DHT22;3085;49.444;11.054;2022-08-19T11:01:16;21.10;99.90
6110;DHT22;3085;49.444;11.054;2022-08-19T11:03:42;21.20;99.90
6110;DHT22;3085;49.444;11.054;2022-08-19T11:06:10;21.20;99.90
6110;DHT22;3085;49.444;11.054;2022-08-19T11:08:39;21.30;99.90
6110;DHT22;3085;49.444;11.054;2022-08-19T11:11:07;21.30;99.90
6110;DHT22;3085;49.444;11.054;2022-08-19T11:13:39;21.30;99.90
6110;DHT22;3085;49.444;11.054;2022-08-19T11:16:08;21.40;99.90
6110;DHT22;3085;49.444;11.054;2022-08-19T11:18:38;21.40;99.90
6110;DHT22;3085;49.444;11.054;2022-08-19T11:21:08;21.30;99.90
6110;DHT22;3085;49.444;11.054;2022-08-19T11:23:36;21.30;99.90
6110;DHT22;3085;49.444;11.054;2022-08-19T11:26:04;21.30;99.90
6110;DHT22;3085;49.444;11.054;2022-08-19T11:28:31;21.30;99.90
6110;DHT22;3085;49.444;11.054;2022-08-19T11:30:58;21.30;99.90
6110;DHT22;3085;49.444;11.054;2022-08-19T11:33:25;21.40;99.90
6110;DHT22;3085;49.444;11.054;2022-08-19T11:35:52;21.30;99.90
6110;DHT22;3085;49.444;11.054;2022-08-19T11:38:20;21.30;99.90
6110;DHT22;3085;49.444;11.054;2022-08-19T11:40:57;21.40;99.90
6110;DHT22;3085;49.444;11.054;2022-08-19T11:43:26;21.40;99.90
6110;DHT22;3085;49.444;11.054;2022-08-19T11:45:54;21.30;99.90
6110;DHT22;3085;49.444;11.054;2022-08-19T11:48:21;21.40;99.90
6110;DHT22;3085;49.444;11.054;2022-08-19T11:50:48;21.40;99.90
6110;DHT22;3085;49.444;11.054;2022-08-19T11:53:15;21.40;99.90
6110;DHT22;3085;49.444;11.054;2022-08-19T11:55:44;21.50;99.90
6110;DHT22;3085;49.444;11.054;2022-08-19T11:58:11;21.40;99.90
6110;DHT22;3085;49.444;11.054;2022-08-19T12:00:40;21.30;99.90
6110;DHT22;3085;49.444;11.054;2022-08-19T12:03:07;21.30;99.90
6110;DHT22;3085;49.444;11.054;2022-08-19T12:05:36;21.40;99.90
6110;DHT22;3085;49.444;11.054;2022-08-19T12:08:03;21.30;99.90
6110;DHT22;3085;49.444;11.054;2022-08-19T12:10:30;21.30;99.90
6110;DHT22;3085;49.444;11.054;2022-08-19T12:12:57;21.40;99.90
6110;DHT22;3085;49.444;11.054;2022-08-19T12:15:23;21.40;99.90
6110;DHT22;3085;49.444;11.054;2022-08-19T12:17:51;21.30;99.90
6110;DHT22;3085;49.444;11.054;2022-08-19T12:20:22;21.20;99.90
6110;DHT22;3085;49.444;11.054;2022-08-19T12:22:50;21.20;99.90
6110;DHT22;3085;49.444;11.054;2022-08-19T12:25:17;21.10;99.90
6110;DHT22;3085;49.444;11.054;2022-08-19T12:27:44;21.10;99.90
6110;DHT22;3085;49.444;11.054;2022-08-19T12:30:12;21.00;99.90
6110;DHT22;3085;49.444;11.054;2022-08-19T12:32:40;21.00;99.90
6110;DHT22;3085;49.444;11.054;2022-08-19T12:35:09;21.00;99.90
6110;DHT22;3085;49.444;11.054;2022-08-19T12:37:37;20.90;99.90
6110;DHT22;3085;49.444;11.054;2022-08-19T12:40:04;20.80;99.90
6110;DHT22;3085;49.444;11.054;2022-08-19T12:42:32;20.80;99.90
6110;DHT22;3085;49.444;11.054;2022-08-19T12:44:58;20.70;99.90
6110;DHT22;3085;49.444;11.054;2022-08-19T12:47:25;20.80;99.90
6110;DHT22;3085;49.444;11.054;2022-08-19T12:49:52;20.70;99.90
6110;DHT22;3085;49.444;11.054;2022-08-19T12:52:24;20.70;99.90
6110;DHT22;3085;49.444;11.054;2022-08-19T12:54:54;20.70;99.90
6110;DHT22;3085;49.444;11.054;2022-08-19T12:57:23;20.60;99.90
6110;DHT22;3085;49.444;11.054;2022-08-19T12:59:52;20.50;99.90
6110;DHT22;3085;49.444;11.054;2022-08-19T13:02:20;20.50;99.90
6110;DHT22;3085;49.444;11.054;2022-08-19T13:04:47;20.50;99.90
6110;DHT22;3085;49.444;11.054;2022-08-19T13:07:14;20.50;99.90
6110;DHT22;3085;49.444;11.054;2022-08-19T13:09:42;20.60;99.90
6110;DHT22;3085;49.444;11.054;2022-08-19T13:12:10;20.60;99.90
6110;DHT22;3085;49.444;11.054;2022-08-19T13:14:38;20.50;99.90
6110;DHT22;3085;49.444;11.054;2022-08-19T13:17:05;20.50;99.90
6110;DHT22;3085;49.444;11.054;2022-08-19T13:19:32;20.40;99.90
6110;DHT22;3085;49.444;11.054;2022-08-19T13:21:59;20.50;99.90
6110;DHT22;3085;49.444;11.054;2022-08-19T13:24:26;20.40;99.90
6110;DHT22;3085;49.444;11.054;2022-08-19T13:26:54;20.30;99.90
6110;DHT22;3085;49.444;11.054;2022-08-19T13:29:21;20.40;99.90
6110;DHT22;3085;49.444;11.054;2022-08-19T13:32:05;20.30;99.90
6110;DHT22;3085;49.444;11.054;2022-08-19T13:34:50;20.40;99.90
6110;DHT22;3085;49.444;11.054;2022-08-19T13:37:16;20.40;99.90
6110;DHT22;3085;49.444;11.054;2022-08-19T13:40:05;20.40;99.90
6110;DHT22;3085;49.444;11.054;2022-08-19T13:42:35;20.30;99.90
6110;DHT22;3085;49.444;11.054;2022-08-19T13:45:02;20.30;99.90
6110;DHT22;3085;49.444;11.054;2022-08-19T13:47:30;19.70;99.90
6110;DHT22;3085;49.444;11.054;2022-08-19T13:49:57;20.40;99.90
6110;DHT22;3085;49.444;11.054;2022-08-19T13:52:23;20.30;99.90
6110;DHT22;3085;49.444;11.054;2022-08-19T13:54:50;20.30;99.90
6110;DHT22;3085;49.444;11.054;2022-08-19T13:57:17;20.40;99.90
6110;DHT22;3085;49.444;11.054;2022-08-19T13:59:45;20.30;99.90
6110;DHT22;3085;49.444;11.054;2022-08-19T14:02:12;20.30;99.90
6110;DHT22;3085;49.444;11.054;2022-08-19T14:04:39;20.30;99.90
6110;DHT22;3085;49.444;11.054;2022-08-19T14:07:05;20.30;99.90
6110;DHT22;3085;49.444;11.054;2022-08-19T14:09:32;20.30;99.90
6110;DHT22;3085;49.444;11.054;2022-08-19T14:11:59;20.40;99.90
6110;DHT22;3085;49.444;11.054;2022-08-19T14:14:26;20.30;99.90
6110;DHT22;3085;49.444;11.054;2022-08-19T14:16:54;20.40;99.90
6110;DHT22;3085;49.444;11.054;2022-08-19T14:19:21;20.40;99.90
6110;DHT22;3085;49.444;11.054;2022-08-19T14:21:48;20.40;99.90
6110;DHT22;3085;49.444;11.054;2022-08-19T14:24:15;20.40;99.90
6110;DHT22;3085;49.444;11.054;2022-08-19T14:26:41;20.40;99.90
6110;DHT22;3085;49.444;11.054;2022-08-19T14:29:08;20.30;99.90
6110;DHT22;3085;49.444;11.054;2022-08-19T14:31:35;20.20;99.90
6110;DHT22;3085;49.444;11.054;2022-08-19T14:34:03;20.20;99.90
6110;DHT22;3085;49.444;11.054;2022-08-19T14:36:30;20.10;99.90
6110;DHT22;3085;49.444;11.054;2022-08-19T14:38:59;20.00;99.90
6110;DHT22;3085;49.444;11.054;2022-08-19T14:41:26;19.90;99.90
6110;DHT22;3085;49.444;11.054;2022-08-19T14:43:54;19.90;99.90
6110;DHT22;3085;49.444;11.054;2022-08-19T14:46:24;19.90;99.90
6110;DHT22;3085;49.444;11.054;2022-08-19T14:48:52;19.90;99.90
6110;DHT22;3085;49.444;11.054;2022-08-19T14:51:21;19.90;99.90
6110;DHT22;3085;49.444;11.054;2022-08-19T14:53:49;19.90;99.90
6110;DHT22;3085;49.444;11.054;2022-08-19T14:56:18;19.80;99.90
6110;DHT22;3085;49.444;11.054;2022-08-19T14:58:46;19.80;99.90
6110;DHT22;3085;49.444;11.054;2022-08-19T15:01:13;19.80;99.90
6110;DHT22;3085;49.444;11.054;2022-08-19T15:03:40;19.80;99.90
6110;DHT22;3085;49.444;11.054;2022-08-19T15:06:08;19.80;99.90
6110;DHT22;3085;49.444;11.054;2022-08-19T15:08:38;19.80;99.90
6110;DHT22;3085;49.444;11.054;2022-08-19T15:11:08;19.80;99.90
6110;DHT22;3085;49.444;11.054;2022-08-19T15:13:36;19.90;99.90
6110;DHT22;3085;49.444;11.054;2022-08-19T15:16:03;19.80;99.90
6110;DHT22;3085;49.444;11.054;2022-08-19T15:18:29;19.80;99.90
6110;DHT22;3085;49.444;11.054;2022-08-19T15:20:58;19.80;99.90
6110;DHT22;3085;49.444;11.054;2022-08-19T15:23:26;19.80;99.90
6110;DHT22;3085;49.444;11.054;2022-08-19T15:25:56;19.80;99.90
6110;DHT22;3085;49.444;11.054;2022-08-19T15:28:24;19.80;99.90
6110;DHT22;3085;49.444;11.054;2022-08-19T15:30:51;19.80;99.90
6110;DHT22;3085;49.444;11.054;2022-08-19T15:33:19;19.70;99.90
6110;DHT22;3085;49.444;11.054;2022-08-19T15:35:47;19.60;99.90
6110;DHT22;3085;49.444;11.054;2022-08-19T15:38:16;19.50;99.90
6110;DHT22;3085;49.444;11.054;2022-08-19T15:40:44;19.50;99.90
6110;DHT22;3085;49.444;11.054;2022-08-19T15:43:14;19.50;99.90
6110;DHT22;3085;49.444;11.054;2022-08-19T15:45:41;19.40;99.90
6110;DHT22;3085;49.444;11.054;2022-08-19T15:48:09;19.30;99.90
6110;DHT22;3085;49.444;11.054;2022-08-19T15:50:36;19.30;99.90
6110;DHT22;3085;49.444;11.054;2022-08-19T15:53:06;19.20;99.90
6110;DHT22;3085;49.444;11.054;2022-08-19T15:55:35;19.30;99.90